createdAt,value
2022-08-09T00:00:01.028Z,102098.84
2022-08-09T00:02:49.622Z,102106.84
2022-08-09T00:06:18.831Z,102098.09
2022-08-09T00:08:11.122Z,102106.00
2022-08-09T00:10:40.537Z,102105.25
2022-08-09T00:13:16.867Z,102097.44
2022-08-09T00:16:00.111Z,102101.44
2022-08-09T00:18:34.861Z,102100.06
2022-08-09T00:21:08.627Z,102107.94
2022-08-09T00:23:55.928Z,102107.59
2022-08-09T00:26:32.074Z,102100.97
2022-08-09T00:29:02.331Z,102095.91
2022-08-09T00:31:58.249Z,102102.84
2022-08-09T00:34:19.268Z,102103.47
2022-08-09T00:36:47.905Z,102105.72
2022-08-09T00:39:17.080Z,102101.59
2022-08-09T00:44:10.259Z,102099.91
2022-08-09T00:44:48.065Z,102089.31
2022-08-09T00:47:15.828Z,102092.03
2022-08-09T00:49:43.827Z,102097.19
2022-08-09T00:52:19.411Z,102098.34
2022-08-09T00:54:48.540Z,102101.28
2022-08-09T00:57:33.971Z,102099.28
2022-08-09T01:00:21.015Z,102097.81
2022-08-09T01:03:20.568Z,102101.84
2022-08-09T01:05:55.216Z,102097.84
2022-08-09T01:08:40.517Z,102097.44
2022-08-09T01:11:38.950Z,102100.78
2022-08-09T01:14:13.321Z,102092.69
2022-08-09T01:16:47.308Z,102091.75
2022-08-09T01:19:39.859Z,102096.88
2022-08-09T01:22:41.979Z,102097.09
2022-08-09T01:25:22.039Z,102096.00
2022-08-09T01:27:52.596Z,102095.34
2022-08-09T01:30:33.578Z,102102.16
2022-08-09T01:33:11.464Z,102104.34
2022-08-09T01:35:51.940Z,102106.06
2022-08-09T01:38:24.536Z,102103.41
2022-08-09T01:41:04.905Z,102098.34
2022-08-09T01:43:50.422Z,102108.09
2022-08-09T01:46:37.446Z,102101.09
2022-08-09T01:49:14.692Z,102108.97
2022-08-09T01:51:53.794Z,102110.09
2022-08-09T01:54:34.944Z,102111.78
2022-08-09T01:57:08.166Z,102116.19
2022-08-09T01:59:41.036Z,102110.28
2022-08-09T02:02:23.731Z,102121.75
2022-08-09T02:05:04.065Z,102120.25
2022-08-09T02:08:39.246Z,102117.38
2022-08-09T02:10:29.932Z,102115.88
2022-08-09T02:13:00.657Z,102127.13
2022-08-09T02:15:48.990Z,102130.59
2022-08-09T02:18:19.583Z,102129.84
2022-08-09T02:20:55.040Z,102128.78
2022-08-09T02:23:31.876Z,102130.88
2022-08-09T02:26:07.121Z,102124.22
2022-08-09T02:29:04.829Z,102128.16
2022-08-09T02:31:36.241Z,102135.00
2022-08-09T02:34:13.642Z,102129.66
2022-08-09T02:36:56.339Z,102134.91
2022-08-09T02:39:33.594Z,102143.06
2022-08-09T02:42:10.465Z,102144.19
2022-08-09T02:44:48.654Z,102139.22
2022-08-09T02:47:18.564Z,102144.22
2022-08-09T02:50:02.496Z,102145.22
2022-08-09T02:52:39.781Z,102140.19
2022-08-09T02:55:21.059Z,102147.56
2022-08-09T02:58:00.411Z,102149.72
2022-08-09T03:00:47.862Z,102141.75
2022-08-09T03:04:05.847Z,102139.22
2022-08-09T03:06:15.611Z,102142.84
2022-08-09T03:08:45.302Z,102137.06
2022-08-09T03:11:15.470Z,102144.25
2022-08-09T03:14:02.970Z,102137.25
2022-08-09T03:16:30.011Z,102142.69
2022-08-09T03:18:57.064Z,102142.00
2022-08-09T03:21:36.620Z,102137.59
2022-08-09T03:24:06.559Z,102137.44
2022-08-09T03:26:42.629Z,102135.91
2022-08-09T03:29:22.663Z,102135.38
2022-08-09T03:32:00.209Z,102140.63
2022-08-09T03:34:28.019Z,102141.00
2022-08-09T03:36:59.485Z,102147.94
2022-08-09T03:39:37.945Z,102145.13
2022-08-09T03:42:06.457Z,102151.97
2022-08-09T03:44:33.623Z,102148.97
2022-08-09T03:47:00.256Z,102149.53
2022-08-09T03:49:32.766Z,102156.19
2022-08-09T03:52:04.375Z,102159.59
2022-08-09T03:54:38.350Z,102149.44
2022-08-09T03:57:18.038Z,102151.31
2022-08-09T03:59:53.357Z,102158.38
2022-08-09T04:02:27.885Z,102158.75
2022-08-09T04:04:58.553Z,102158.34
2022-08-09T04:07:47.140Z,102154.72
2022-08-09T04:10:12.609Z,102160.06
2022-08-09T04:12:50.886Z,102159.69
2022-08-09T04:15:39.216Z,102156.88
2022-08-09T04:18:09.693Z,102159.50
2022-08-09T04:20:44.742Z,102168.81
2022-08-09T04:23:16.809Z,102160.63
2022-08-09T04:25:52.312Z,102163.94
2022-08-09T04:28:34.190Z,102163.38
2022-08-09T04:31:09.119Z,102160.06
2022-08-09T04:33:51.953Z,102158.00
2022-08-09T04:36:27.911Z,102169.88
2022-08-09T04:38:56.349Z,102176.34
2022-08-09T04:41:31.951Z,102172.19
2022-08-09T04:44:07.176Z,102165.69
2022-08-09T04:46:59.421Z,102174.97
2022-08-09T04:49:52.129Z,102172.44
2022-08-09T04:52:26.917Z,102163.41
2022-08-09T04:54:56.349Z,102174.16
2022-08-09T04:57:24.982Z,102171.88
2022-08-09T04:59:55.784Z,102168.44
2022-08-09T05:02:24.078Z,102170.31
2022-08-09T05:04:55.818Z,102176.88
2022-08-09T05:07:23.872Z,102172.59
2022-08-09T05:09:51.023Z,102171.34
2022-08-09T05:12:17.688Z,102178.94
2022-08-09T05:14:45.216Z,102189.06
2022-08-09T05:17:15.392Z,102184.13
2022-08-09T05:19:58.494Z,102182.75
2022-08-09T05:22:43.623Z,102188.97
2022-08-09T05:25:12.231Z,102184.53
2022-08-09T05:27:45.567Z,102183.59
2022-08-09T05:30:15.428Z,102184.47
2022-08-09T05:32:50.900Z,102194.25
2022-08-09T05:35:22.031Z,102182.44
2022-08-09T05:37:50.127Z,102180.34
2022-08-09T05:40:18.271Z,102191.41
2022-08-09T05:42:45.291Z,102181.53
2022-08-09T05:45:14.402Z,102185.72
2022-08-09T05:47:53.067Z,102190.47
2022-08-09T05:50:43.925Z,102193.41
2022-08-09T05:53:31.790Z,102200.91
2022-08-09T05:55:58.885Z,102198.09
2022-08-09T05:58:26.717Z,102199.56
2022-08-09T06:00:53.712Z,102206.09
2022-08-09T06:03:20.665Z,102206.94
2022-08-09T06:06:04.423Z,102207.25
2022-08-09T06:08:32.801Z,102206.53
2022-08-09T06:11:00.589Z,102204.94
2022-08-09T06:13:28.486Z,102211.25
2022-08-09T06:16:00.216Z,102214.94
2022-08-09T06:18:28.292Z,102218.69
2022-08-09T06:20:58.459Z,102222.81
2022-08-09T06:23:58.484Z,102213.31
2022-08-09T06:26:21.233Z,102217.09
2022-08-09T06:28:59.954Z,102219.75
2022-08-09T06:31:39.695Z,102230.38
2022-08-09T06:34:19.121Z,102225.22
2022-08-09T06:36:45.834Z,102226.06
2022-08-09T06:39:13.532Z,102233.53
2022-08-09T06:42:08.797Z,102225.50
2022-08-09T06:44:31.295Z,102227.13
2022-08-09T06:46:58.098Z,102226.69
2022-08-09T06:49:44.847Z,102221.47
2022-08-09T06:52:15.845Z,102222.50
2022-08-09T06:54:43.191Z,102231.53
2022-08-09T06:57:11.903Z,102238.41
2022-08-09T07:00:51.002Z,102234.22
2022-08-09T07:02:29.742Z,102234.50
2022-08-09T07:04:58.439Z,102236.91
2022-08-09T07:08:00.650Z,102232.34
2022-08-09T07:10:29.639Z,102240.78
2022-08-09T07:13:18.553Z,102233.94
2022-08-09T07:16:38.931Z,102237.59
2022-08-09T07:18:34.989Z,102243.22
2022-08-09T07:21:07.865Z,102238.03
2022-08-09T07:23:36.242Z,102245.50
2022-08-09T07:26:04.296Z,102244.00
2022-08-09T07:28:34.834Z,102245.94
2022-08-09T07:31:04.683Z,102253.28
2022-08-09T07:33:52.501Z,102254.00
2022-08-09T07:36:21.151Z,102249.09
2022-08-09T07:38:58.221Z,102255.44
2022-08-09T07:41:27.712Z,102249.53
2022-08-09T07:44:00.200Z,102251.22
2022-08-09T07:46:27.906Z,102251.84
2022-08-09T07:49:00.329Z,102247.38
2022-08-09T07:52:04.896Z,102253.25
2022-08-09T07:54:15.444Z,102254.22
2022-08-09T07:56:49.509Z,102246.34
2022-08-09T07:59:25.393Z,102249.88
2022-08-09T08:02:02.305Z,102259.00
2022-08-09T08:04:31.515Z,102257.00
2022-08-09T08:07:15.551Z,102267.56
2022-08-09T08:09:53.575Z,102268.69
2022-08-09T08:12:31.765Z,102268.06
2022-08-09T08:14:58.480Z,102267.34
2022-08-09T08:17:53.174Z,102265.53
2022-08-09T08:20:13.645Z,102265.66
2022-08-09T08:22:41.050Z,102262.28
2022-08-09T08:25:13.673Z,102273.47
2022-08-09T08:27:43.115Z,102261.09
2022-08-09T08:30:13.669Z,102262.28
2022-08-09T08:32:52.340Z,102271.78
2022-08-09T08:35:22.178Z,102264.78
2022-08-09T08:37:59.634Z,102262.88
2022-08-09T08:40:33.098Z,102268.63
2022-08-09T08:43:03.218Z,102266.94
2022-08-09T08:45:53.309Z,102274.19
2022-08-09T08:48:22.260Z,102265.28
2022-08-09T08:50:51.841Z,102266.72
2022-08-09T08:53:21.856Z,102254.59
2022-08-09T08:55:49.050Z,102259.28
2022-08-09T08:58:24.029Z,102264.16
2022-08-09T09:00:56.999Z,102273.78
2022-08-09T09:03:37.696Z,102267.63
2022-08-09T09:06:07.154Z,102271.44
2022-08-09T09:08:40.663Z,102268.91
2022-08-09T09:11:13.877Z,102282.41
2022-08-09T09:13:56.893Z,102266.22
2022-08-09T09:16:32.201Z,102262.88
2022-08-09T09:22:04.137Z,102270.56
2022-08-09T09:24:38.806Z,102270.06
2022-08-09T09:27:08.530Z,102271.59
2022-08-09T09:30:10.707Z,102268.09
2022-08-09T09:32:32.292Z,102262.53
2022-08-09T09:35:09.263Z,102266.47
2022-08-09T09:37:40.911Z,102267.00
2022-08-09T09:40:10.049Z,102266.63
2022-08-09T09:42:38.515Z,102270.72
2022-08-09T09:45:08.597Z,102264.09
2022-08-09T09:47:47.591Z,102265.34
2022-08-09T09:50:23.166Z,102266.09
2022-08-09T09:52:53.591Z,102260.22
2022-08-09T09:55:28.428Z,102271.59
2022-08-09T09:58:19.222Z,102264.03
2022-08-09T10:00:55.066Z,102263.59
2022-08-09T10:03:57.043Z,102261.75
2022-08-09T10:06:24.576Z,102271.84
2022-08-09T10:08:58.503Z,102268.16
2022-08-09T10:12:00.091Z,102274.78
2022-08-09T10:14:27.677Z,102272.31
2022-08-09T10:17:39.638Z,102265.84
2022-08-09T10:19:56.993Z,102265.06
2022-08-09T10:22:37.250Z,102263.19
2022-08-09T10:25:11.947Z,102266.28
2022-08-09T10:27:58.037Z,102252.47
2022-08-09T10:32:00.039Z,102252.97
2022-08-09T10:34:09.140Z,102256.91
2022-08-09T10:36:05.000Z,102260.00
2022-08-09T10:38:55.358Z,102260.50
2022-08-09T10:41:20.638Z,102261.25
2022-08-09T10:44:01.579Z,102260.50
2022-08-09T10:46:54.627Z,102255.34
2022-08-09T10:49:50.949Z,102263.31
2022-08-09T10:52:44.514Z,102261.25
2022-08-09T10:55:28.476Z,102259.56
2022-08-09T10:58:03.473Z,102254.94
2022-08-09T11:00:37.012Z,102259.03
2022-08-09T11:03:49.525Z,102256.84
2022-08-09T11:06:25.252Z,102260.81
2022-08-09T11:08:53.360Z,102261.16
2022-08-09T11:11:22.977Z,102249.94
2022-08-09T11:14:28.362Z,102254.16
2022-08-09T11:16:58.375Z,102251.66
2022-08-09T11:20:19.826Z,102253.16
2022-08-09T11:22:56.813Z,102247.31
2022-08-09T11:25:45.415Z,102243.69
2022-08-09T11:28:54.133Z,102249.44
2022-08-09T11:31:43.570Z,102248.94
2022-08-09T11:34:33.530Z,102245.53
2022-08-09T11:37:07.378Z,102245.25
2022-08-09T11:40:01.745Z,102246.91
2022-08-09T11:42:52.718Z,102238.56
2022-08-09T11:45:37.826Z,102249.53
2022-08-09T11:48:24.942Z,102247.03
2022-08-09T11:51:21.333Z,102255.25
2022-08-09T11:54:21.684Z,102256.63
2022-08-09T11:57:56.874Z,102253.69
2022-08-09T12:00:27.366Z,102255.78
2022-08-09T12:02:58.224Z,102256.72
2022-08-09T12:05:39.742Z,102253.66
2022-08-09T12:08:21.850Z,102244.56
2022-08-09T12:10:55.435Z,102250.69
2022-08-09T12:16:30.242Z,102244.78
2022-08-09T12:18:59.125Z,102254.47
2022-08-09T12:21:32.495Z,102250.41
2022-08-09T12:24:09.216Z,102260.19
2022-08-09T12:26:44.878Z,102245.50
2022-08-09T12:29:44.761Z,102242.13
2022-08-09T12:32:26.025Z,102240.72
2022-08-09T12:34:59.990Z,102239.50
2022-08-09T12:37:50.499Z,102238.50
2022-08-09T12:40:21.098Z,102238.22
2022-08-09T12:42:50.536Z,102227.94
2022-08-09T12:45:34.106Z,102229.06
2022-08-09T12:48:07.944Z,102228.31
2022-08-09T12:50:49.005Z,102226.97
2022-08-09T12:53:35.101Z,102224.81
2022-08-09T12:56:43.061Z,102227.13
2022-08-09T12:59:14.134Z,102227.81
2022-08-09T13:01:48.788Z,102228.97
2022-08-09T13:04:35.817Z,102226.00
2022-08-09T13:07:16.554Z,102232.22
2022-08-09T13:09:56.018Z,102220.84
2022-08-09T13:12:29.161Z,102224.84
2022-08-09T13:15:07.607Z,102227.19
2022-08-09T13:18:03.880Z,102226.47
2022-08-09T13:20:37.756Z,102234.34
2022-08-09T13:24:16.560Z,102226.84
2022-08-09T13:26:39.526Z,102214.13
2022-08-09T13:29:08.806Z,102219.88
2022-08-09T13:32:16.053Z,102227.94
2022-08-09T13:34:41.823Z,102227.13
2022-08-09T13:37:08.998Z,102221.22
2022-08-09T13:41:46.856Z,102218.34
2022-08-09T13:42:27.911Z,102227.97
2022-08-09T13:44:58.055Z,102229.63
2022-08-09T13:47:31.348Z,102226.09
2022-08-09T13:50:30.016Z,102228.66
2022-08-09T13:53:00.874Z,102225.41
2022-08-09T13:55:29.100Z,102231.97
2022-08-09T13:57:59.283Z,102234.53
2022-08-09T14:00:28.476Z,102230.91
2022-08-09T14:03:02.828Z,102223.72
2022-08-09T14:05:59.363Z,102226.28
2022-08-09T14:08:31.388Z,102225.56
2022-08-09T14:11:00.291Z,102217.53
2022-08-09T14:14:16.368Z,102232.66
2022-08-09T14:16:28.678Z,102221.06
2022-08-09T14:18:58.157Z,102219.78
2022-08-09T14:21:28.992Z,102221.59
2022-08-09T14:23:57.288Z,102223.38
2022-08-09T14:26:32.415Z,102213.00
2022-08-09T14:30:18.509Z,102219.78
2022-08-09T14:31:55.095Z,102220.44
2022-08-09T14:34:31.537Z,102233.03
2022-08-09T14:37:06.907Z,102228.34
2022-08-09T14:39:39.854Z,102235.63
2022-08-09T14:42:30.724Z,102230.22
2022-08-09T14:46:38.894Z,102226.56
2022-08-09T14:47:58.636Z,102228.59
2022-08-09T14:50:32.915Z,102228.75
2022-08-09T14:53:02.636Z,102223.88
2022-08-09T14:55:32.703Z,102233.41
2022-08-09T14:58:02.963Z,102234.25
2022-08-09T15:00:30.923Z,102238.53
2022-08-09T15:02:58.355Z,102230.81
2022-08-09T15:05:26.934Z,102219.81
2022-08-09T15:07:56.295Z,102228.94
2022-08-09T15:10:26.755Z,102227.16
2022-08-09T15:12:54.708Z,102222.50
2022-08-09T15:15:22.556Z,102222.59
2022-08-09T15:17:52.824Z,102223.16
2022-08-09T15:22:00.827Z,102220.69
2022-08-09T15:24:01.647Z,102225.34
2022-08-09T15:25:55.649Z,102214.06
2022-08-09T15:28:27.371Z,102224.88
2022-08-09T15:31:08.804Z,102223.47
2022-08-09T15:34:33.247Z,102216.50
2022-08-09T15:36:29.171Z,102225.59
2022-08-09T15:39:00.567Z,102219.06
2022-08-09T15:41:31.953Z,102211.09
2022-08-09T15:44:03.676Z,102221.63
2022-08-09T15:46:34.167Z,102225.25
2022-08-09T15:49:22.843Z,102213.06
2022-08-09T15:52:03.700Z,102208.47
2022-08-09T15:54:49.038Z,102214.41
2022-08-09T15:57:33.867Z,102218.06
2022-08-09T16:00:14.192Z,102212.41
2022-08-09T16:02:53.492Z,102214.16
2022-08-09T16:05:23.360Z,102217.63
2022-08-09T16:07:50.577Z,102206.91
2022-08-09T16:10:38.910Z,102209.19
2022-08-09T16:13:18.774Z,102206.16
2022-08-09T16:16:10.255Z,102206.78
2022-08-09T16:18:45.013Z,102206.78
2022-08-09T16:21:17.723Z,102206.16
2022-08-09T16:24:01.767Z,102207.88
2022-08-09T16:26:33.902Z,102218.19
2022-08-09T16:29:12.721Z,102212.00
2022-08-09T16:32:18.038Z,102207.72
2022-08-09T16:34:55.367Z,102214.28
2022-08-09T16:37:53.588Z,102220.69
2022-08-09T16:40:09.899Z,102204.88
2022-08-09T16:42:37.367Z,102211.66
2022-08-09T16:45:05.602Z,102215.22
2022-08-09T16:48:41.191Z,102218.09
2022-08-09T16:50:29.656Z,102211.53
2022-08-09T16:52:57.804Z,102211.41
2022-08-09T16:55:24.457Z,102202.84
2022-08-09T16:58:09.109Z,102210.53
2022-08-09T17:00:38.727Z,102215.59
2022-08-09T17:03:20.851Z,102224.66
2022-08-09T17:06:09.408Z,102215.09
2022-08-09T17:08:45.642Z,102216.88
2022-08-09T17:11:37.636Z,102215.31
2022-08-09T17:14:25.606Z,102212.44
2022-08-09T17:17:12.764Z,102201.78
2022-08-09T17:20:32.877Z,102204.03
2022-08-09T17:22:45.012Z,102197.75
2022-08-09T17:25:19.565Z,102213.13
2022-08-09T17:27:48.709Z,102204.31
2022-08-09T17:30:17.103Z,102208.94
2022-08-09T17:32:46.805Z,102206.56
2022-08-09T17:35:14.455Z,102206.41
2022-08-09T17:38:02.258Z,102202.63
2022-08-09T17:40:30.275Z,102195.91
2022-08-09T17:42:59.622Z,102205.22
2022-08-09T17:46:01.601Z,102204.00
2022-08-09T17:48:16.968Z,102199.50
2022-08-09T17:50:48.490Z,102211.69
2022-08-09T17:53:23.418Z,102209.13
2022-08-09T17:55:55.770Z,102208.91
2022-08-09T18:00:55.080Z,102204.28
2022-08-09T18:03:24.300Z,102206.31
2022-08-09T18:05:53.367Z,102204.66
2022-08-09T18:08:27.257Z,102214.72
2022-08-09T18:11:01.591Z,102216.75
2022-08-09T18:13:39.935Z,102217.63
2022-08-09T18:16:30.280Z,102218.53
2022-08-09T18:18:58.153Z,102218.09
2022-08-09T18:21:31.887Z,102222.09
2022-08-09T18:24:14.640Z,102212.34
2022-08-09T18:26:45.874Z,102221.50
2022-08-09T18:30:42.195Z,102216.59
2022-08-09T18:32:00.044Z,102216.59
2022-08-09T18:34:29.058Z,102221.06
2022-08-09T18:36:55.876Z,102222.25
2022-08-09T18:39:24.181Z,102231.16
2022-08-09T18:41:53.091Z,102228.63
2022-08-09T18:44:22.925Z,102223.81
2022-08-09T18:47:07.821Z,102230.78
2022-08-09T18:49:43.385Z,102222.72
2022-08-09T18:52:13.873Z,102225.50
2022-08-09T18:54:52.272Z,102224.34
2022-08-09T18:57:22.296Z,102222.09
2022-08-09T18:59:57.654Z,102232.28
2022-08-09T19:02:31.623Z,102227.72
2022-08-09T19:05:14.215Z,102223.19
2022-08-09T19:07:42.152Z,102228.56
2022-08-09T19:10:37.714Z,102224.72
2022-08-09T19:13:20.750Z,102224.81
2022-08-09T19:15:53.114Z,102244.56
2022-08-09T19:18:33.233Z,102247.53
2022-08-09T19:21:03.593Z,102245.09
2022-08-09T19:24:36.081Z,102247.97
2022-08-09T19:26:31.128Z,102253.03
2022-08-09T19:29:02.578Z,102252.06
2022-08-09T19:31:45.305Z,102251.94
2022-08-09T19:34:21.745Z,102261.09
2022-08-09T19:36:54.387Z,102258.78
2022-08-09T19:39:42.915Z,102262.75
2022-08-09T19:42:19.424Z,102264.16
2022-08-09T19:44:49.238Z,102270.16
2022-08-09T19:47:22.723Z,102268.03
2022-08-09T19:50:07.374Z,102272.94
2022-08-09T19:52:49.593Z,102269.81
2022-08-09T19:55:19.917Z,102269.28
2022-08-09T19:58:00.190Z,102275.75
2022-08-09T20:00:29.584Z,102268.22
2022-08-09T20:04:18.677Z,102279.03
2022-08-09T20:05:50.779Z,102274.00
2022-08-09T20:08:33.198Z,102271.13
2022-08-09T20:11:02.487Z,102283.59
2022-08-09T20:13:32.200Z,102278.31
2022-08-09T20:16:37.337Z,102270.63
2022-08-09T20:19:41.872Z,102282.94
2022-08-09T20:21:54.810Z,102264.44
2022-08-09T20:24:32.082Z,102264.97
2022-08-09T20:27:02.820Z,102264.97
2022-08-09T20:29:38.011Z,102260.84
2022-08-09T20:32:29.055Z,102260.63
2022-08-09T20:34:54.710Z,102254.75
2022-08-09T20:37:22.672Z,102253.22
2022-08-09T20:40:15.621Z,102253.13
2022-08-09T20:42:37.798Z,102251.09
2022-08-09T20:46:01.975Z,102250.88
2022-08-09T20:48:01.046Z,102253.78
2022-08-09T20:50:48.056Z,102241.47
2022-08-09T20:53:36.499Z,102244.25
2022-08-09T20:56:20.259Z,102257.25
2022-08-09T20:58:49.834Z,102255.16
2022-08-09T21:01:34.486Z,102260.16
2022-08-09T21:04:35.633Z,102272.00
2022-08-09T21:06:51.045Z,102266.75
2022-08-09T21:09:32.682Z,102277.84
2022-08-09T21:14:37.004Z,102264.47
2022-08-09T21:18:22.167Z,102256.16
2022-08-09T21:20:18.157Z,102263.63
2022-08-09T21:22:41.689Z,102263.53
2022-08-09T21:25:28.557Z,102263.84
2022-08-09T21:28:05.188Z,102258.97
2022-08-09T21:30:34.523Z,102241.38
2022-08-09T21:33:07.150Z,102242.94
2022-08-09T21:35:39.319Z,102237.78
2022-08-09T21:38:30.884Z,102237.34
2022-08-09T21:40:59.121Z,102248.44
2022-08-09T21:43:31.448Z,102253.91
2022-08-09T21:46:13.698Z,102244.88
2022-08-09T21:48:49.321Z,102261.25
2022-08-09T21:51:24.557Z,102256.47
2022-08-09T21:54:02.757Z,102256.19
2022-08-09T21:56:43.256Z,102258.72
2022-08-09T21:59:11.624Z,102260.28
2022-08-09T22:02:00.542Z,102254.19
2022-08-09T22:04:37.573Z,102255.25
2022-08-09T22:07:35.074Z,102263.44
2022-08-09T22:10:07.712Z,102259.66
2022-08-09T22:12:38.886Z,102265.13
2022-08-09T22:15:15.394Z,102262.22
2022-08-09T22:17:47.175Z,102267.47
2022-08-09T22:20:16.919Z,102260.78
2022-08-09T22:22:49.127Z,102265.00
2022-08-09T22:26:12.266Z,102264.16
2022-08-09T22:28:06.539Z,102252.03
2022-08-09T22:30:34.029Z,102258.38
2022-08-09T22:33:03.424Z,102257.75
2022-08-09T22:36:00.223Z,102257.00
2022-08-09T22:38:23.623Z,102262.03
2022-08-09T22:40:57.822Z,102263.44
2022-08-09T22:44:03.749Z,102263.84
2022-08-09T22:48:10.863Z,102264.66
2022-08-09T22:49:10.234Z,102263.97
2022-08-09T22:51:49.628Z,102270.38
2022-08-09T22:54:21.296Z,102266.94
2022-08-09T22:56:54.721Z,102259.56
2022-08-09T22:59:55.518Z,102258.50
2022-08-09T23:02:14.935Z,102261.03
2022-08-09T23:04:44.921Z,102254.91
2022-08-09T23:08:22.352Z,102254.50
2022-08-09T23:10:29.977Z,102252.25
2022-08-09T23:12:57.321Z,102250.34
2022-08-09T23:15:24.414Z,102253.72
2022-08-09T23:17:53.475Z,102254.56
2022-08-09T23:20:20.242Z,102249.06
2022-08-09T23:22:49.078Z,102244.66
2022-08-09T23:25:15.944Z,102238.63
2022-08-09T23:27:59.661Z,102241.16
2022-08-09T23:30:29.634Z,102244.66
2022-08-09T23:32:56.298Z,102236.84
2022-08-09T23:35:23.285Z,102240.75
2022-08-09T23:37:49.904Z,102246.66
2022-08-09T23:40:17.067Z,102241.81
2022-08-09T23:42:43.809Z,102247.19
2022-08-09T23:45:11.193Z,102243.59
2022-08-09T23:47:57.801Z,102244.34
2022-08-09T23:50:24.617Z,102238.97
2022-08-09T23:52:51.295Z,102237.31
2022-08-09T23:55:18.075Z,102237.59
2022-08-09T23:58:08.236Z,102243.59
